sensor_id;sensor_type;location;lat;lon;timestamp;pressure;altitude;pressure_sealevel;temperature;humidity
14117;BME280;7137;51.436;6.544;2022-09-01T00:01:56;101645.66;;;19.24;48.45
14117;BME280;7137;51.436;6.544;2022-09-01T00:04:59;101634.91;;;19.10;49.40
14117;BME280;7137;51.436;6.544;2022-09-01T00:08:03;101634.06;;;19.09;50.50
14117;BME280;7137;51.436;6.544;2022-09-01T00:11:05;101625.00;;;19.13;50.36
14117;BME280;7137;51.436;6.544;2022-09-01T00:14:09;101632.19;;;19.28;49.11
14117;BME280;7137;51.436;6.544;2022-09-01T00:17:11;101631.16;;;19.31;48.72
14117;BME280;7137;51.436;6.544;2022-09-01T00:20:15;101636.72;;;19.42;49.76
14117;BME280;7137;51.436;6.544;2022-09-01T00:23:17;101633.25;;;19.24;49.42
14117;BME280;7137;51.436;6.544;2022-09-01T00:26:19;101635.22;;;19.21;49.12
14117;BME280;7137;51.436;6.544;2022-09-01T00:29:21;101643.56;;;19.13;49.15
14117;BME280;7137;51.436;6.544;2022-09-01T00:32:22;101639.91;;;18.98;50.55
14117;BME280;7137;51.436;6.544;2022-09-01T00:35:26;101634.63;;;18.81;50.48
14117;BME280;7137;51.436;6.544;2022-09-01T00:38:27;101630.34;;;18.79;49.99
14117;BME280;7137;51.436;6.544;2022-09-01T00:41:31;101624.38;;;18.75;50.98
14117;BME280;7137;51.436;6.544;2022-09-01T00:44:33;101625.69;;;18.66;50.41
14117;BME280;7137;51.436;6.544;2022-09-01T00:47:39;101627.72;;;18.43;50.88
14117;BME280;7137;51.436;6.544;2022-09-01T00:50:42;101622.06;;;18.50;51.21
14117;BME280;7137;51.436;6.544;2022-09-01T00:53:44;101629.38;;;18.62;51.23
14117;BME280;7137;51.436;6.544;2022-09-01T00:56:46;101630.53;;;18.57;51.57
14117;BME280;7137;51.436;6.544;2022-09-01T00:59:52;101632.19;;;18.59;51.59
14117;BME280;7137;51.436;6.544;2022-09-01T01:02:55;101632.25;;;18.58;51.11
14117;BME280;7137;51.436;6.544;2022-09-01T01:06:00;101633.47;;;18.33;52.33
14117;BME280;7137;51.436;6.544;2022-09-01T01:09:04;101634.50;;;18.48;51.48
14117;BME280;7137;51.436;6.544;2022-09-01T01:12:07;101625.16;;;18.41;52.24
14117;BME280;7137;51.436;6.544;2022-09-01T01:15:18;101624.97;;;18.27;52.76
14117;BME280;7137;51.436;6.544;2022-09-01T01:18:19;101619.75;;;18.25;52.74
14117;BME280;7137;51.436;6.544;2022-09-01T01:21:25;101622.56;;;18.22;52.66
14117;BME280;7137;51.436;6.544;2022-09-01T01:24:48;101624.78;;;18.31;52.54
14117;BME280;7137;51.436;6.544;2022-09-01T01:27:51;101629.50;;;18.42;52.04
14117;BME280;7137;51.436;6.544;2022-09-01T01:31:05;101617.16;;;18.60;52.06
14117;BME280;7137;51.436;6.544;2022-09-01T01:34:10;101621.09;;;18.87;51.04
14117;BME280;7137;51.436;6.544;2022-09-01T01:37:14;101630.03;;;18.85;50.79
14117;BME280;7137;51.436;6.544;2022-09-01T01:40:20;101623.34;;;18.78;51.08
14117;BME280;7137;51.436;6.544;2022-09-01T01:43:22;101630.69;;;18.73;51.25
14117;BME280;7137;51.436;6.544;2022-09-01T01:46:25;101624.91;;;18.64;51.88
14117;BME280;7137;51.436;6.544;2022-09-01T01:49:28;101628.41;;;18.65;51.73
14117;BME280;7137;51.436;6.544;2022-09-01T01:52:30;101633.19;;;18.57;51.79
14117;BME280;7137;51.436;6.544;2022-09-01T01:55:35;101624.94;;;18.63;52.20
14117;BME280;7137;51.436;6.544;2022-09-01T01:58:37;101636.25;;;18.66;51.54
14117;BME280;7137;51.436;6.544;2022-09-01T02:01:41;101642.25;;;18.70;51.50
14117;BME280;7137;51.436;6.544;2022-09-01T02:04:43;101638.88;;;18.49;53.00
14117;BME280;7137;51.436;6.544;2022-09-01T02:07:45;101631.38;;;18.57;52.10
14117;BME280;7137;51.436;6.544;2022-09-01T02:10:50;101633.69;;;18.65;51.96
14117;BME280;7137;51.436;6.544;2022-09-01T02:13:53;101632.03;;;18.62;52.22
14117;BME280;7137;51.436;6.544;2022-09-01T02:16:56;101643.75;;;18.57;52.60
14117;BME280;7137;51.436;6.544;2022-09-01T02:19:58;101647.16;;;18.42;53.14
14117;BME280;7137;51.436;6.544;2022-09-01T02:22:59;101639.88;;;18.47;52.67
14117;BME280;7137;51.436;6.544;2022-09-01T02:26:11;101641.88;;;18.42;53.05
14117;BME280;7137;51.436;6.544;2022-09-01T02:29:14;101642.25;;;18.17;54.22
14117;BME280;7137;51.436;6.544;2022-09-01T02:32:18;101635.16;;;18.17;53.99
14117;BME280;7137;51.436;6.544;2022-09-01T02:35:22;101628.88;;;18.01;54.75
14117;BME280;7137;51.436;6.544;2022-09-01T02:38:28;101628.16;;;17.97;55.01
14117;BME280;7137;51.436;6.544;2022-09-01T02:41:31;101625.97;;;17.88;55.26
14117;BME280;7137;51.436;6.544;2022-09-01T02:44:33;101623.34;;;17.88;54.88
14117;BME280;7137;51.436;6.544;2022-09-01T02:47:36;101627.41;;;17.76;56.38
14117;BME280;7137;51.436;6.544;2022-09-01T02:50:41;101626.66;;;17.73;56.12
14117;BME280;7137;51.436;6.544;2022-09-01T02:53:44;101624.63;;;17.79;55.88
14117;BME280;7137;51.436;6.544;2022-09-01T02:56:48;101618.31;;;17.63;57.12
14117;BME280;7137;51.436;6.544;2022-09-01T02:59:53;101617.44;;;17.63;56.18
14117;BME280;7137;51.436;6.544;2022-09-01T03:02:59;101616.94;;;17.55;57.34
14117;BME280;7137;51.436;6.544;2022-09-01T03:06:01;101627.78;;;17.67;56.40
14117;BME280;7137;51.436;6.544;2022-09-01T03:09:06;101629.47;;;17.70;56.58
14117;BME280;7137;51.436;6.544;2022-09-01T03:12:09;101628.59;;;17.69;56.11
14117;BME280;7137;51.436;6.544;2022-09-01T03:15:10;101633.25;;;17.83;56.42
14117;BME280;7137;51.436;6.544;2022-09-01T03:18:13;101623.00;;;17.57;56.78
14117;BME280;7137;51.436;6.544;2022-09-01T03:21:15;101626.91;;;17.68;56.19
14117;BME280;7137;51.436;6.544;2022-09-01T03:24:17;101629.56;;;17.67;55.74
14117;BME280;7137;51.436;6.544;2022-09-01T03:27:20;101628.88;;;17.63;56.73
14117;BME280;7137;51.436;6.544;2022-09-01T03:30:21;101626.50;;;17.57;56.77
14117;BME280;7137;51.436;6.544;2022-09-01T03:33:25;101629.53;;;17.29;57.94
14117;BME280;7137;51.436;6.544;2022-09-01T03:36:28;101628.19;;;17.39;57.47
14117;BME280;7137;51.436;6.544;2022-09-01T03:39:31;101632.75;;;17.36;58.44
14117;BME280;7137;51.436;6.544;2022-09-01T03:42:34;101631.53;;;17.24;57.28
14117;BME280;7137;51.436;6.544;2022-09-01T03:45:36;101637.81;;;17.21;57.69
14117;BME280;7137;51.436;6.544;2022-09-01T03:48:39;101629.59;;;17.28;59.27
14117;BME280;7137;51.436;6.544;2022-09-01T03:51:41;101627.88;;;17.27;59.15
14117;BME280;7137;51.436;6.544;2022-09-01T03:54:44;101617.84;;;17.14;59.52
14117;BME280;7137;51.436;6.544;2022-09-01T03:57:46;101621.88;;;17.23;58.05
14117;BME280;7137;51.436;6.544;2022-09-01T04:00:50;101622.09;;;17.18;57.62
14117;BME280;7137;51.436;6.544;2022-09-01T04:03:54;101622.03;;;17.20;59.39
14117;BME280;7137;51.436;6.544;2022-09-01T04:06:57;101617.28;;;17.08;60.11
14117;BME280;7137;51.436;6.544;2022-09-01T04:10:00;101617.59;;;17.00;58.56
14117;BME280;7137;51.436;6.544;2022-09-01T04:13:03;101613.50;;;17.13;59.06
14117;BME280;7137;51.436;6.544;2022-09-01T04:16:06;101612.56;;;17.14;58.91
14117;BME280;7137;51.436;6.544;2022-09-01T04:19:10;101615.69;;;17.24;58.78
14117;BME280;7137;51.436;6.544;2022-09-01T04:22:19;101610.16;;;17.10;60.45
14117;BME280;7137;51.436;6.544;2022-09-01T04:25:22;101616.94;;;17.15;58.21
14117;BME280;7137;51.436;6.544;2022-09-01T04:28:31;101616.69;;;17.21;60.34
14117;BME280;7137;51.436;6.544;2022-09-01T04:31:35;101617.53;;;17.22;58.55
14117;BME280;7137;51.436;6.544;2022-09-01T04:34:39;101619.88;;;17.28;58.18
14117;BME280;7137;51.436;6.544;2022-09-01T04:37:41;101613.75;;;17.28;58.47
14117;BME280;7137;51.436;6.544;2022-09-01T04:40:43;101619.66;;;17.14;60.45
14117;BME280;7137;51.436;6.544;2022-09-01T04:43:48;101626.84;;;17.10;60.42
14117;BME280;7137;51.436;6.544;2022-09-01T04:46:51;101625.41;;;17.03;60.63
14117;BME280;7137;51.436;6.544;2022-09-01T04:49:53;101619.94;;;17.08;59.98
14117;BME280;7137;51.436;6.544;2022-09-01T04:52:59;101617.69;;;16.99;60.15
14117;BME280;7137;51.436;6.544;2022-09-01T04:56:02;101620.66;;;17.11;58.99
14117;BME280;7137;51.436;6.544;2022-09-01T04:59:06;101623.09;;;16.96;59.75
14117;BME280;7137;51.436;6.544;2022-09-01T05:02:10;101623.88;;;16.98;61.42
14117;BME280;7137;51.436;6.544;2022-09-01T05:05:11;101625.13;;;17.09;60.73
14117;BME280;7137;51.436;6.544;2022-09-01T05:08:16;101634.13;;;17.05;60.87
14117;BME280;7137;51.436;6.544;2022-09-01T05:11:19;101626.47;;;17.19;59.97
14117;BME280;7137;51.436;6.544;2022-09-01T05:14:22;101630.94;;;17.17;60.48
14117;BME280;7137;51.436;6.544;2022-09-01T05:17:24;101632.22;;;17.28;58.84
14117;BME280;7137;51.436;6.544;2022-09-01T05:20:28;101636.41;;;17.33;59.44
14117;BME280;7137;51.436;6.544;2022-09-01T05:23:31;101631.75;;;17.38;59.41
14117;BME280;7137;51.436;6.544;2022-09-01T05:26:32;101636.47;;;17.32;59.70
14117;BME280;7137;51.436;6.544;2022-09-01T05:29:36;101636.03;;;17.41;60.00
14117;BME280;7137;51.436;6.544;2022-09-01T05:32:39;101645.91;;;17.17;59.60
14117;BME280;7137;51.436;6.544;2022-09-01T05:35:51;101644.72;;;17.24;59.82
14117;BME280;7137;51.436;6.544;2022-09-01T05:38:54;101640.31;;;17.25;60.97
14117;BME280;7137;51.436;6.544;2022-09-01T05:41:57;101641.09;;;17.27;60.53
14117;BME280;7137;51.436;6.544;2022-09-01T05:45:02;101645.28;;;17.31;60.78
14117;BME280;7137;51.436;6.544;2022-09-01T05:48:04;101649.22;;;17.22;59.99
14117;BME280;7137;51.436;6.544;2022-09-01T05:51:06;101639.84;;;17.35;60.23
14117;BME280;7137;51.436;6.544;2022-09-01T05:54:08;101648.31;;;17.42;59.63
14117;BME280;7137;51.436;6.544;2022-09-01T05:57:11;101650.03;;;17.43;60.84
14117;BME280;7137;51.436;6.544;2022-09-01T06:00:14;101656.06;;;17.26;60.10
14117;BME280;7137;51.436;6.544;2022-09-01T06:03:17;101661.09;;;17.32;59.75
14117;BME280;7137;51.436;6.544;2022-09-01T06:06:19;101654.03;;;17.33;60.90
14117;BME280;7137;51.436;6.544;2022-09-01T06:09:22;101658.97;;;17.40;60.33
14117;BME280;7137;51.436;6.544;2022-09-01T06:12:23;101658.19;;;17.38;60.77
14117;BME280;7137;51.436;6.544;2022-09-01T06:15:28;101661.53;;;17.42;60.13
14117;BME280;7137;51.436;6.544;2022-09-01T06:18:31;101657.97;;;17.43;60.68
14117;BME280;7137;51.436;6.544;2022-09-01T06:21:33;101659.75;;;17.82;59.09
14117;BME280;7137;51.436;6.544;2022-09-01T06:24:35;101659.75;;;18.00;58.98
14117;BME280;7137;51.436;6.544;2022-09-01T06:27:38;101658.81;;;18.01;57.77
14117;BME280;7137;51.436;6.544;2022-09-01T06:30:43;101659.84;;;18.35;56.58
14117;BME280;7137;51.436;6.544;2022-09-01T06:33:45;101658.72;;;18.58;56.46
14117;BME280;7137;51.436;6.544;2022-09-01T06:36:47;101664.34;;;19.21;54.45
14117;BME280;7137;51.436;6.544;2022-09-01T06:39:51;101664.50;;;20.63;50.40
14117;BME280;7137;51.436;6.544;2022-09-01T06:42:52;101667.38;;;23.24;45.00
14117;BME280;7137;51.436;6.544;2022-09-01T06:45:55;101674.31;;;23.39;41.62
14117;BME280;7137;51.436;6.544;2022-09-01T06:48:57;101670.66;;;25.44;38.17
14117;BME280;7137;51.436;6.544;2022-09-01T06:52:01;101678.16;;;29.31;33.12
14117;BME280;7137;51.436;6.544;2022-09-01T06:55:03;101687.31;;;28.72;32.17
14117;BME280;7137;51.436;6.544;2022-09-01T06:58:06;101677.41;;;30.13;30.02
14117;BME280;7137;51.436;6.544;2022-09-01T07:01:10;101682.09;;;29.37;30.63
14117;BME280;7137;51.436;6.544;2022-09-01T07:04:15;101691.66;;;30.94;29.27
14117;BME280;7137;51.436;6.544;2022-09-01T07:07:21;101700.59;;;30.95;28.53
14117;BME280;7137;51.436;6.544;2022-09-01T07:10:24;101687.78;;;29.43;30.23
14117;BME280;7137;51.436;6.544;2022-09-01T07:13:26;101688.84;;;31.74;27.55
14117;BME280;7137;51.436;6.544;2022-09-01T07:16:33;101692.38;;;31.40;27.44
14117;BME280;7137;51.436;6.544;2022-09-01T07:19:38;101697.78;;;31.48;27.13
14117;BME280;7137;51.436;6.544;2022-09-01T07:22:40;101686.84;;;29.99;29.53
14117;BME280;7137;51.436;6.544;2022-09-01T07:25:43;101686.84;;;30.27;29.38
14117;BME280;7137;51.436;6.544;2022-09-01T07:28:48;101694.28;;;32.48;26.45
14117;BME280;7137;51.436;6.544;2022-09-01T07:31:52;101683.13;;;30.28;28.92
14117;BME280;7137;51.436;6.544;2022-09-01T07:34:56;101690.81;;;32.14;26.79
14117;BME280;7137;51.436;6.544;2022-09-01T07:37:58;101687.75;;;32.01;26.96
14117;BME280;7137;51.436;6.544;2022-09-01T07:40:59;101686.28;;;29.12;30.46
14117;BME280;7137;51.436;6.544;2022-09-01T07:44:02;101684.91;;;29.54;29.78
14117;BME280;7137;51.436;6.544;2022-09-01T07:47:05;101683.41;;;32.24;26.53
14117;BME280;7137;51.436;6.544;2022-09-01T07:50:09;101685.38;;;30.86;28.81
14117;BME280;7137;51.436;6.544;2022-09-01T07:53:11;101684.19;;;34.64;24.41
14117;BME280;7137;51.436;6.544;2022-09-01T07:56:19;101687.84;;;36.12;21.94
14117;BME280;7137;51.436;6.544;2022-09-01T07:59:21;101688.75;;;33.71;24.66
14117;BME280;7137;51.436;6.544;2022-09-01T08:02:24;101688.38;;;33.18;25.27
14117;BME280;7137;51.436;6.544;2022-09-01T08:05:27;101689.31;;;35.64;22.44
14117;BME280;7137;51.436;6.544;2022-09-01T08:08:29;101691.78;;;36.46;20.89
14117;BME280;7137;51.436;6.544;2022-09-01T08:11:31;101690.47;;;36.42;20.90
14117;BME280;7137;51.436;6.544;2022-09-01T08:14:33;101697.38;;;37.36;19.88
14117;BME280;7137;51.436;6.544;2022-09-01T08:17:37;101691.16;;;37.56;19.63
14117;BME280;7137;51.436;6.544;2022-09-01T08:20:40;101694.25;;;38.35;19.02
14117;BME280;7137;51.436;6.544;2022-09-01T08:23:44;101693.31;;;37.67;19.89
14117;BME280;7137;51.436;6.544;2022-09-01T08:26:47;101690.56;;;36.98;20.22
14117;BME280;7137;51.436;6.544;2022-09-01T08:29:49;101693.59;;;37.37;19.75
14117;BME280;7137;51.436;6.544;2022-09-01T08:32:52;101687.59;;;36.93;19.76
14117;BME280;7137;51.436;6.544;2022-09-01T08:35:54;101679.00;;;36.89;19.81
14117;BME280;7137;51.436;6.544;2022-09-01T08:38:56;101678.69;;;38.36;18.54
14117;BME280;7137;51.436;6.544;2022-09-01T08:42:03;101682.19;;;36.99;18.86
14117;BME280;7137;51.436;6.544;2022-09-01T08:45:12;101674.63;;;34.68;21.92
14117;BME280;7137;51.436;6.544;2022-09-01T08:48:20;101664.16;;;30.20;25.95
14117;BME280;7137;51.436;6.544;2022-09-01T08:51:26;101662.25;;;30.48;26.42
14117;BME280;7137;51.436;6.544;2022-09-01T08:54:36;101651.88;;;29.52;27.39
14117;BME280;7137;51.436;6.544;2022-09-01T08:57:42;101665.47;;;30.51;26.76
14117;BME280;7137;51.436;6.544;2022-09-01T09:00:46;101665.97;;;30.01;27.44
14117;BME280;7137;51.436;6.544;2022-09-01T09:04:08;101663.34;;;33.08;23.95
14117;BME280;7137;51.436;6.544;2022-09-01T09:07:23;101665.22;;;32.91;23.62
14117;BME280;7137;51.436;6.544;2022-09-01T09:10:36;101657.31;;;31.05;25.36
14117;BME280;7137;51.436;6.544;2022-09-01T09:13:50;101661.91;;;34.69;21.42
14117;BME280;7137;51.436;6.544;2022-09-01T09:16:58;101664.34;;;33.71;23.07
14117;BME280;7137;51.436;6.544;2022-09-01T09:20:04;101658.13;;;32.82;24.20
14117;BME280;7137;51.436;6.544;2022-09-01T09:23:12;101655.88;;;34.36;22.32
14117;BME280;7137;51.436;6.544;2022-09-01T09:26:17;101654.31;;;33.40;22.44
14117;BME280;7137;51.436;6.544;2022-09-01T09:29:21;101649.81;;;34.71;19.92
14117;BME280;7137;51.436;6.544;2022-09-01T09:32:40;101645.44;;;30.18;24.32
14117;BME280;7137;51.436;6.544;2022-09-01T09:35:45;101634.03;;;30.06;25.74
14117;BME280;7137;51.436;6.544;2022-09-01T09:39:03;101635.22;;;32.11;22.59
14117;BME280;7137;51.436;6.544;2022-09-01T09:42:08;101620.94;;;29.84;25.86
14117;BME280;7137;51.436;6.544;2022-09-01T09:45:21;101623.53;;;31.18;23.35
14117;BME280;7137;51.436;6.544;2022-09-01T09:48:28;101634.94;;;32.71;21.47
14117;BME280;7137;51.436;6.544;2022-09-01T09:51:31;101621.72;;;29.39;25.16
14117;BME280;7137;51.436;6.544;2022-09-01T09:54:34;101617.69;;;32.48;21.77
14117;BME280;7137;51.436;6.544;2022-09-01T09:57:38;101617.53;;;28.51;25.65
14117;BME280;7137;51.436;6.544;2022-09-01T10:01:01;101615.78;;;30.71;23.70
14117;BME280;7137;51.436;6.544;2022-09-01T10:04:03;101602.19;;;27.94;26.49
14117;BME280;7137;51.436;6.544;2022-09-01T10:07:30;101604.94;;;27.02;27.34
14117;BME280;7137;51.436;6.544;2022-09-01T10:10:37;101607.19;;;28.27;26.38
14117;BME280;7137;51.436;6.544;2022-09-01T10:13:39;101598.66;;;27.53;27.78
14117;BME280;7137;51.436;6.544;2022-09-01T10:16:42;101592.69;;;29.70;25.26
14117;BME280;7137;51.436;6.544;2022-09-01T10:19:52;101605.47;;;27.17;27.18
14117;BME280;7137;51.436;6.544;2022-09-01T10:22:57;101592.88;;;27.88;27.02
14117;BME280;7137;51.436;6.544;2022-09-01T10:26:01;101591.41;;;27.04;27.65
14117;BME280;7137;51.436;6.544;2022-09-01T10:29:07;101590.16;;;27.98;26.94
14117;BME280;7137;51.436;6.544;2022-09-01T10:32:15;101593.88;;;28.55;26.60
14117;BME280;7137;51.436;6.544;2022-09-01T10:35:21;101589.31;;;27.97;27.52
14117;BME280;7137;51.436;6.544;2022-09-01T10:38:27;101584.53;;;28.20;27.63
14117;BME280;7137;51.436;6.544;2022-09-01T10:41:50;101585.44;;;26.58;29.40
14117;BME280;7137;51.436;6.544;2022-09-01T10:44:55;101575.13;;;26.54;28.84
14117;BME280;7137;51.436;6.544;2022-09-01T10:48:21;101575.31;;;26.30;30.00
14117;BME280;7137;51.436;6.544;2022-09-01T10:51:44;101578.84;;;26.62;29.99
14117;BME280;7137;51.436;6.544;2022-09-01T10:54:54;101586.22;;;26.91;29.39
14117;BME280;7137;51.436;6.544;2022-09-01T10:58:20;101577.28;;;26.39;29.65
14117;BME280;7137;51.436;6.544;2022-09-01T11:02:08;101568.53;;;25.94;30.52
14117;BME280;7137;51.436;6.544;2022-09-01T11:05:15;101573.59;;;25.76;29.54
14117;BME280;7137;51.436;6.544;2022-09-01T11:08:20;101564.97;;;25.39;30.15
14117;BME280;7137;51.436;6.544;2022-09-01T11:11:29;101564.81;;;25.74;30.78
14117;BME280;7137;51.436;6.544;2022-09-01T11:14:33;101565.72;;;26.27;30.61
14117;BME280;7137;51.436;6.544;2022-09-01T11:17:54;101557.22;;;26.75;30.65
14117;BME280;7137;51.436;6.544;2022-09-01T11:21:13;101551.81;;;27.17;29.58
14117;BME280;7137;51.436;6.544;2022-09-01T11:24:44;101557.94;;;27.88;28.65
14117;BME280;7137;51.436;6.544;2022-09-01T11:31:39;101546.75;;;27.73;28.45
14117;BME280;7137;51.436;6.544;2022-09-01T11:34:43;101549.66;;;26.90;28.47
14117;BME280;7137;51.436;6.544;2022-09-01T11:37:47;101547.47;;;26.53;29.30
14117;BME280;7137;51.436;6.544;2022-09-01T11:40:54;101552.28;;;27.32;28.53
14117;BME280;7137;51.436;6.544;2022-09-01T11:43:56;101544.06;;;27.93;28.03
14117;BME280;7137;51.436;6.544;2022-09-01T11:47:02;101537.16;;;28.38;27.05
14117;BME280;7137;51.436;6.544;2022-09-01T11:50:07;101530.56;;;28.70;27.29
14117;BME280;7137;51.436;6.544;2022-09-01T11:53:21;101536.94;;;28.69;27.41
14117;BME280;7137;51.436;6.544;2022-09-01T11:56:24;101544.78;;;28.24;27.44
14117;BME280;7137;51.436;6.544;2022-09-01T11:59:32;101540.63;;;27.62;28.45
14117;BME280;7137;51.436;6.544;2022-09-01T12:02:42;101528.72;;;27.55;29.22
14117;BME280;7137;51.436;6.544;2022-09-01T12:05:45;101528.22;;;27.00;30.27
14117;BME280;7137;51.436;6.544;2022-09-01T12:08:54;101525.50;;;27.11;30.63
14117;BME280;7137;51.436;6.544;2022-09-01T12:11:56;101526.22;;;26.61;31.02
14117;BME280;7137;51.436;6.544;2022-09-01T12:15:00;101514.66;;;26.61;32.12
14117;BME280;7137;51.436;6.544;2022-09-01T12:18:12;101508.34;;;27.02;31.15
14117;BME280;7137;51.436;6.544;2022-09-01T12:21:19;101507.22;;;26.12;32.30
14117;BME280;7137;51.436;6.544;2022-09-01T12:24:22;101508.66;;;25.95;32.69
14117;BME280;7137;51.436;6.544;2022-09-01T12:27:24;101505.97;;;25.95;32.53
14117;BME280;7137;51.436;6.544;2022-09-01T12:30:26;101507.78;;;25.94;32.74
14117;BME280;7137;51.436;6.544;2022-09-01T12:33:30;101506.50;;;26.30;33.04
14117;BME280;7137;51.436;6.544;2022-09-01T12:36:34;101489.69;;;26.60;32.79
14117;BME280;7137;51.436;6.544;2022-09-01T12:39:37;101495.56;;;26.54;32.96
14117;BME280;7137;51.436;6.544;2022-09-01T12:42:48;101496.53;;;27.05;32.01
14117;BME280;7137;51.436;6.544;2022-09-01T12:45:50;101505.09;;;27.39;32.13
14117;BME280;7137;51.436;6.544;2022-09-01T12:49:16;101497.53;;;27.73;30.78
14117;BME280;7137;51.436;6.544;2022-09-01T12:52:22;101487.78;;;27.72;31.00
14117;BME280;7137;51.436;6.544;2022-09-01T12:55:27;101488.34;;;27.85;30.61
14117;BME280;7137;51.436;6.544;2022-09-01T12:58:31;101475.22;;;27.92;31.13
14117;BME280;7137;51.436;6.544;2022-09-01T13:01:34;101481.84;;;27.68;30.59
14117;BME280;7137;51.436;6.544;2022-09-01T13:04:38;101478.78;;;27.23;31.29
14117;BME280;7137;51.436;6.544;2022-09-01T13:07:41;101471.78;;;26.71;32.17
14117;BME280;7137;51.436;6.544;2022-09-01T13:10:44;101467.06;;;26.53;32.88
14117;BME280;7137;51.436;6.544;2022-09-01T13:13:46;101467.53;;;26.68;32.27
14117;BME280;7137;51.436;6.544;2022-09-01T13:16:48;101462.09;;;27.10;32.61
14117;BME280;7137;51.436;6.544;2022-09-01T13:19:51;101459.44;;;27.29;31.57
14117;BME280;7137;51.436;6.544;2022-09-01T13:22:52;101467.03;;;27.64;30.81
14117;BME280;7137;51.436;6.544;2022-09-01T13:25:54;101451.47;;;27.68;30.46
14117;BME280;7137;51.436;6.544;2022-09-01T13:28:59;101450.91;;;27.93;30.77
14117;BME280;7137;51.436;6.544;2022-09-01T13:32:00;101449.72;;;28.25;29.92
14117;BME280;7137;51.436;6.544;2022-09-01T13:35:04;101435.59;;;27.55;30.50
14117;BME280;7137;51.436;6.544;2022-09-01T13:38:06;101435.03;;;27.42;31.17
14117;BME280;7137;51.436;6.544;2022-09-01T13:41:08;101423.34;;;27.91;30.44
14117;BME280;7137;51.436;6.544;2022-09-01T13:44:10;101426.13;;;28.09;30.45
14117;BME280;7137;51.436;6.544;2022-09-01T13:47:12;101428.91;;;28.36;29.79
14117;BME280;7137;51.436;6.544;2022-09-01T13:50:17;101427.56;;;28.60;29.53
14117;BME280;7137;51.436;6.544;2022-09-01T13:53:19;101420.56;;;28.77;30.15
14117;BME280;7137;51.436;6.544;2022-09-01T13:56:21;101423.13;;;28.22;30.44
14117;BME280;7137;51.436;6.544;2022-09-01T13:59:23;101430.25;;;28.03;30.04
14117;BME280;7137;51.436;6.544;2022-09-01T14:02:24;101428.69;;;27.62;31.25
14117;BME280;7137;51.436;6.544;2022-09-01T14:05:29;101425.41;;;27.39;31.62
14117;BME280;7137;51.436;6.544;2022-09-01T14:08:31;101416.47;;;27.10;31.13
14117;BME280;7137;51.436;6.544;2022-09-01T14:11:33;101412.44;;;27.35;32.02
14117;BME280;7137;51.436;6.544;2022-09-01T14:14:35;101417.94;;;27.52;31.01
14117;BME280;7137;51.436;6.544;2022-09-01T14:17:38;101414.69;;;28.07;30.35
14117;BME280;7137;51.436;6.544;2022-09-01T14:20:42;101409.59;;;28.04;30.10
14117;BME280;7137;51.436;6.544;2022-09-01T14:23:44;101412.84;;;28.54;29.39
14117;BME280;7137;51.436;6.544;2022-09-01T14:26:46;101407.28;;;28.65;30.13
14117;BME280;7137;51.436;6.544;2022-09-01T14:29:51;101409.34;;;27.68;30.68
14117;BME280;7137;51.436;6.544;2022-09-01T14:32:53;101401.84;;;27.82;30.53
14117;BME280;7137;51.436;6.544;2022-09-01T14:35:55;101398.47;;;27.89;30.57
14117;BME280;7137;51.436;6.544;2022-09-01T14:38:57;101405.66;;;27.89;30.43
14117;BME280;7137;51.436;6.544;2022-09-01T14:41:59;101396.47;;;27.82;30.76
14117;BME280;7137;51.436;6.544;2022-09-01T14:45:00;101388.13;;;27.85;31.17
14117;BME280;7137;51.436;6.544;2022-09-01T14:48:03;101393.72;;;28.10;30.83
14117;BME280;7137;51.436;6.544;2022-09-01T14:51:07;101389.41;;;27.90;30.60
14117;BME280;7137;51.436;6.544;2022-09-01T14:54:09;101385.69;;;28.01;30.43
14117;BME280;7137;51.436;6.544;2022-09-01T14:57:11;101382.78;;;27.65;31.46
14117;BME280;7137;51.436;6.544;2022-09-01T15:00:13;101374.44;;;27.68;30.75
14117;BME280;7137;51.436;6.544;2022-09-01T15:03:16;101369.19;;;27.86;31.09
14117;BME280;7137;51.436;6.544;2022-09-01T15:06:20;101381.94;;;27.65;31.18
14117;BME280;7137;51.436;6.544;2022-09-01T15:09:23;101378.53;;;27.53;30.79
14117;BME280;7137;51.436;6.544;2022-09-01T15:12:25;101376.28;;;27.48;31.09
14117;BME280;7137;51.436;6.544;2022-09-01T15:15:31;101370.75;;;27.50;31.06
14117;BME280;7137;51.436;6.544;2022-09-01T15:18:32;101371.19;;;27.65;30.51
14117;BME280;7137;51.436;6.544;2022-09-01T15:21:35;101369.78;;;27.70;31.21
14117;BME280;7137;51.436;6.544;2022-09-01T15:24:38;101353.25;;;27.75;30.73
14117;BME280;7137;51.436;6.544;2022-09-01T15:27:39;101351.41;;;27.75;30.54
14117;BME280;7137;51.436;6.544;2022-09-01T15:30:41;101351.56;;;27.74;30.91
14117;BME280;7137;51.436;6.544;2022-09-01T15:33:44;101351.38;;;27.56;31.09
14117;BME280;7137;51.436;6.544;2022-09-01T15:36:48;101351.56;;;27.45;31.33
14117;BME280;7137;51.436;6.544;2022-09-01T15:39:50;101350.56;;;27.46;30.71
14117;BME280;7137;51.436;6.544;2022-09-01T15:42:52;101343.91;;;27.69;30.86
14117;BME280;7137;51.436;6.544;2022-09-01T15:45:54;101350.13;;;27.50;30.39
14117;BME280;7137;51.436;6.544;2022-09-01T15:48:57;101357.47;;;27.10;31.19
14117;BME280;7137;51.436;6.544;2022-09-01T15:52:00;101349.91;;;26.75;32.26
14117;BME280;7137;51.436;6.544;2022-09-01T15:55:02;101355.41;;;26.83;31.83
14117;BME280;7137;51.436;6.544;2022-09-01T15:58:04;101354.56;;;26.82;31.67
14117;BME280;7137;51.436;6.544;2022-09-01T16:01:05;101349.06;;;26.84;31.58
14117;BME280;7137;51.436;6.544;2022-09-01T16:04:09;101344.06;;;26.70;31.67
14117;BME280;7137;51.436;6.544;2022-09-01T16:07:14;101348.75;;;26.87;31.17
14117;BME280;7137;51.436;6.544;2022-09-01T16:10:17;101341.91;;;27.13;31.07
14117;BME280;7137;51.436;6.544;2022-09-01T16:13:19;101341.50;;;27.28;30.47
14117;BME280;7137;51.436;6.544;2022-09-01T16:16:38;101340.53;;;27.48;30.66
14117;BME280;7137;51.436;6.544;2022-09-01T16:19:47;101338.66;;;27.58;30.44
14117;BME280;7137;51.436;6.544;2022-09-01T16:22:55;101345.31;;;27.44;30.41